Results by/Résultats par Info:(613) 673-4909

                                         K-TOWN TRIATHLON

                                     Sunday August 1st, 1999
                              Confederation Park, Kingston, Ontario

                                         Duathlon Results

 -----FINAL------ ----------------------- ------------ -------------- ----           4km                            32km                        7.2km
                                                       Category            ----------RUN1---------  ----- ----------BIKE--------  ----- ---------RUN----------
   Pos     Time   Name                    City         Plc/Total        #   Cat   Ovr  Time    km   Tr 1  Cat Ovr Time    km/hr   Tr 2  Cat  Ovr  Time     km
 ------  -------- ----------------------- ------------ -------------- ---- -----------------------  ----- ----------------------  ----- ----------------------
    1     1:28:51 Bradley FRENETTE        Waterloo      1/1   MElite    7  1      1   13:39  3:25    0:29 1      1   47:13 40.7    0:23 1      1   27:09  3:47 
    2 DQ  1:32:20 Dave DORSETT            Kingston      1/17  M30-39  236  4      6   14:22  3:36    0:55 1      2   47:17 40.6    0:43 3      5   29:05  4:03 
    3     1:34:33 Dalton COTE             Kingston      2/17  M30-39  269  1      2   14:16  3:34    0:50 3      5   49:32 38.8    0:43 4      6   29:15  4:04 
    4     1:34:45 Andy LEGER              Kingston      3/17  M30-39   91  2      4   14:18  3:35    0:43 5      7   50:23 38.1    0:47 1      3   28:36  3:59 
    5     1:35:29 Louis TAY               Kingston      4/17  M30-39   33  3      5   14:22  3:36    0:35 4      6   50:09 38.3    0:30 5      7   29:55  4:10 
    6     1:35:43 Dan KUNIC               Kingston      5/17  M30-39  213  5      9   15:00  3:45    0:53 6      8   50:28 38.0    0:46 2      4   28:38  3:59 
    7     1:39:08 Andre GOYETTE           Cornwall      6/17  M30-39  162  6     10   15:22  3:51    0:53 2      4   48:48 39.3    0:49 10    23   33:17  4:38 
    8     1:39:12 Kim KAVLUK              Stouffville   1/17  M40-49  330  1      3   14:16  3:34    1:08 3     17   55:00 34.9    0:54 1      2   27:55  3:53 
    9     1:39:35 Steve BRICK             Kingston      2/17  M40-49  424  2      7   14:26  3:37    1:39 1      9   51:11 37.5    1:20 2      8   31:01  4:19 
   10     1:40:47 Susan SLY               Kingston      1/1   WElite    4  1     11   15:25  3:52    0:33 1     13   52:35 36.5    0:38 1     12   31:38  4:24 
   11     1:41:02 Mika JYLHA              Sault Ste Ma  1/9   M20-29  166  5     19   16:21  4:06    1:08 1      3   48:06 39.9    1:12 5     28   34:16  4:46 
   12     1:41:37 Tony NURSE              Newmarket     2/9   M20-29  402  1      8   14:41  3:41    1:04 3     15   53:24 36.0    1:02 1     10   31:27  4:23 
   13     1:43:14 Mark MONTGOMERY         Kitchener     3/9   M20-29  174  3     14   15:52  3:58    0:52 2     12   52:14 36.8    0:52 4     24   33:25  4:39 
   14     1:43:30 Jayne SANFORD           Barrie        1/3   W40-49  164  1     25   16:41  4:11    1:03 1     10   52:05 36.9    0:53 1     17   32:50  4:34 
   15 CL  1:45:12 David FRASER            Barrie        3/17  M40-49  159  3     17   16:16  4:04    0:51 6     20   55:56 34.3    1:02 3      9   31:09  4:20 
   16     1:46:58 Bob JOY                 Kingston      4/9   M20-29  377  2     13   15:35  3:54    1:29 5     22   56:40 33.9    1:32 2     13   31:44  4:25 
   17     1:47:11 Eric LINDENBERG         Kingston      4/17  M40-49  262  8     32   17:07  4:17    0:45 4     18   55:25 34.7    0:57 5     18   32:59  4:35 
   18     1:47:39 Jim FORBES              Belleville    5/17  M40-49  308  4     18   16:19  4:05    1:35 5     19   55:45 34.4    1:49 4     15   32:12  4:29 
   19     1:47:59 Martin GUYON            Kingston      7/17  M30-39  211  8     16   15:54  3:59    1:01 8     24   57:29 33.4    1:00 7     16   32:35  4:32 
   20 CL  1:50:01 Tim MARRISON            Odessa        8/17  M30-39  329  10    26   16:41  4:11    2:22 9     25   57:48 33.2    1:35 6     11   31:37  4:24 
   21     1:50:10 Christopher INGRAM      Ottawa        5/9   M20-29  288  6     31   17:02  4:16    2:52 4     16   54:51 35.0    2:23 3     19   33:04  4:36 
   22     1:50:57 Glenda LUTES            Kingston      1/7   W30-39  215  2     27   16:51  4:13    1:06 1     21   56:01 34.3    1:07 4     33   35:54  5:00 
   23     1:51:14 Peter LEE               Kingston      6/9   M20-29  175  4     15   15:54  3:59    0:46 6     23   57:01 33.7    0:47 6     37   36:49  5:07 
   24 CL  1:51:31 Pierre ST-AMOUR         Gloucester    6/17  M40-49   68  9     38   17:45  4:27    1:13 2     11   52:07 36.9    1:16 11    46   39:11  5:27 
   25     1:51:41 Bill MCLENNAN           Almonte       9/17  M30-39  305  14    40   18:16  4:34    1:21 7     14   53:18 36.0    1:36 13    39   37:11  5:10 
   26     1:52:04 Scott SEMPLE            Kingston     10/17  M30-39  383  11    29   17:00  4:15    1:43 11    27   58:19 32.9    1:54 9     22   33:11  4:37 
   27     1:52:25 Brenda LIEGLER          Kingston      2/7   W30-39  240  4     36   17:41  4:26    0:49 2     28   58:30 32.8    1:01 1     29   34:26  4:47 
   28     1:52:40 Christina BRIANTE       Guelph        1/5   W20-29  430  1     30   17:02  4:16    2:04 1     31   59:56 32.0    1:54 1     14   31:46  4:25 
   29     1:52:55 Ian THORPE              Carleton Pla  7/17  M40-49  183  7     28   16:54  4:14    1:32 7     29   59:06 32.5    1:31 7     26   33:53  4:43 
   30     1:54:27 Patrick DOYLE           Ottawa       11/17  M30-39  396  7     12   15:33  3:54    1:35 15    42 1:02:02 31.0    2:09 8     21   33:09  4:37 
   31     1:54:31 Gail COADY              Kingston      3/7   W30-39  359  1     20   16:22  4:06    1:19 3     30   59:18 32.4    1:41 3     32   35:53  4:59 
   32     1:54:32 Curtis MONNIER          Kingston     12/17  M30-39  284  12    33   17:14  4:19    1:18 13    36 1:00:27 31.8    1:06 11    30   34:28  4:48 
   33     1:54:44 Patrick FORAN           Tweed         1/1   Junior  397  1     23   16:34  4:09    1:45 1     38 1:00:46 31.6    2:02 1     25   33:39  4:41 
   34     1:55:24 Steve DOHERTY           Kingston      8/17  M40-49   75  5     21   16:25  4:07    0:37 10    41 1:01:48 31.1    0:37 8     34   35:58  5:00 
   35     1:56:28 Jennifer MEINCKE        Sault St Mar  2/5   W20-29  203  2     37   17:43  4:26    1:33 2     40 1:01:35 31.2    1:24 2     27   34:14  4:46 
   36     1:56:47 Roger SMITH             Toronto      13/17  M30-39  352  9     22   16:29  4:08    1:35 14    37 1:00:32 31.7    1:22 12    38   36:51  5:08 
   37     1:57:42 Shane IRVINE            Elginburg     9/17  M40-49  381  10    41   18:18  4:35    1:21 9     35 1:00:20 31.8    1:22 9     35   36:23  5:04 
   38     1:58:07 Ann Marie BRADY         Ottawa        2/3   W40-49  194  2     39   18:00  4:30    1:14 2     34 1:00:17 31.8    1:24 2     40   37:13  5:11 
   39     1:58:31 Gord MCINNES            Kingston     14/17  M30-39   56  13    35   17:39  4:25    1:25 12    33 1:00:16 31.9    1:25 15    43   37:49  5:16 
   40     1:58:41 Joan SCIBETTA           Brewerton     4/7   W30-39  363  3     34   17:22  4:21    2:17 4     39 1:01:19 31.3    1:57 2     31   35:48  4:59 
   41 CL  2:00:06 Greg LAMB               Nepean       10/17  M40-49  152  6     24   16:35  4:09    1:39 14    51 1:07:16 28.6    1:33 6     20   33:05  4:36 
   42     2:00:16 Mike O'NEILL            Toronto      15/17  M30-39  391  15    50   19:58  5:00    2:07 10    26   57:59 33.1    2:00 16    44   38:14  5:19 
   43     2:01:06 David ROBB              Gananoque    11/17  M40-49  172  12    43   19:17  4:50    1:03 11    43 1:02:53 30.5    1:16 10    36   36:39  5:06 
   44     2:06:17 Chris CHESTON           St. Eustace  12/17  M40-49  121  11    42   19:04  4:46    0:34 8     32 1:00:14 31.9    0:34 14    56   45:53  6:23 
   45     2:07:59 Richard CARTY           Kingston     16/17  M30-39  336  17    59   20:45  5:12    1:59 16    48 1:05:50 29.2    2:10 14    41   37:16  5:11 
   46     2:07:59 Kyla SMITH              Kingston      3/5   W20-29  239  5     60   20:46  5:12    2:01 3     47 1:05:48 29.2    2:09 3     42   37:17  5:11 
   47     2:12:17 Eddie CHOI              Scarbourough  7/9   M20-29  312  7     49   19:54  4:59    1:50 8     46 1:04:23 29.8    1:32 7     54   44:39  6:13 
   48     2:13:58 Margaret WILLS          Liverpool     3/3   W40-49  182  3     46   19:37  4:55    0:49 3     59 1:13:56 26.0    1:09 3     45   38:31  5:21 
   49     2:14:06 Israel SCHNAIDER        Thornhill    13/17  M40-49   66  14    45   19:35  4:54    2:00 15    52 1:07:42 28.4    2:15 12    50   42:36  5:55 
   50     2:14:44 Dennis DOHERTY          Kingston      1/2   M50-59   54  2     48   19:50  4:58    0:39 1     55 1:10:32 27.2    1:13 2     49   42:32  5:55 
   51     2:17:32 Sue ARMSTRONG           Kingston      4/5   W20-29  274  3     51   20:04  5:01    2:37 4     53 1:08:18 28.1    1:56 5     53   44:38  6:12 
   52     2:17:34 Michael DELOUCHE        Kingston      8/9   M20-29  273  8     52   20:05  5:02    2:35 7     44 1:03:03 30.5    1:00 8     61   50:52  7:04 
   53     2:17:54 Ruth BERNARDI           Kingston      5/7   W30-39  113  6     55   20:25  5:07    0:42 7     60 1:14:47 25.7    0:57 5     47   41:05  5:43 
   54     2:18:18 Richard SUNDERLAND      Kingston      2/2   M50-59  258  1     47   19:41  4:56    0:58 2     61 1:15:11 25.5    1:11 1     48   41:19  5:45 
   55     2:19:45 Jerry PASKOWITZ                      14/17  M40-49   72  16    62   21:58  5:30    1:30 12    45 1:03:58 30.0    1:45 16    60   50:36  7:02 
   56     2:20:32 Siobhan KELLY-CORNELIUS Kingston      6/7   W30-39  111  7     61   20:49  5:13    0:36 6     57 1:12:24 26.5    0:58 6     55   45:48  6:22 
   57     2:20:48 Lisa BOURGEOIS          Frankford     7/7   W30-39  160  5     54   20:21  5:06    3:23 5     49 1:06:25 28.9    3:09 7     57   47:31  6:36 
   58     2:22:01 Ed PLANTINGA            Hamilton     15/17  M40-49  150  13    44   19:27  4:52    0:51 16    56 1:11:47 26.8    1:04 15    58   48:53  6:48 
   59     2:22:07 Bruce BRIARD            Ajax         16/17  M40-49   32  15    56   20:27  5:07    1:44 13    50 1:06:34 28.8    2:26 17    62   50:57  7:05 
   60     2:22:20 Christine BIGGS ARMSTRO Box 6735      5/5   W20-29  300  4     57   20:43  5:11    2:48 5     58 1:13:15 26.2    1:19 4     52   44:17  6:09 
   61     2:24:40 Richard BIGGS           Box 26199    17/17  M30-39  299  16    58   20:44  5:11    2:48 17    54 1:09:16 27.7    2:04 17    59   49:49  6:56 
   62     2:26:00 William FERGUSON        Kingston     17/17  M40-49   28  17    63   22:06  5:32    0:42 17    62 1:18:16 24.5    0:53 13    51   44:05  6:08 
   63     3:18:52 Joseph YU               Etobicoke     9/9   M20-29  272  9     53   20:16  5:04    3:29 9     63 1:47:17 17.9    1:26 9     63 1:06:26  9:14